createdAt,value
2019-01-28T00:00:33.583Z,2.79
2019-01-28T00:05:42.658Z,2.52
2019-01-28T00:10:51.658Z,2.21
2019-01-28T00:16:00.722Z,2.02
2019-01-28T00:21:09.733Z,1.84
2019-01-28T00:26:18.778Z,1.71
2019-01-28T00:31:28.130Z,1.53
2019-01-28T00:36:37.108Z,1.20
2019-01-28T00:41:46.067Z,1.14
2019-01-28T00:46:55.110Z,1.25
2019-01-28T00:52:04.102Z,1.33
2019-01-28T00:57:13.090Z,1.60
2019-01-28T01:02:22.086Z,1.50
2019-01-28T01:07:31.075Z,1.63
2019-01-28T01:12:40.121Z,1.76
2019-01-28T01:17:49.038Z,1.72
2019-01-28T01:22:58.132Z,1.75
2019-01-28T01:28:07.260Z,1.69
2019-01-28T01:33:16.145Z,1.16
2019-01-28T01:38:25.187Z,1.07
2019-01-28T01:43:34.267Z,1.42
2019-01-28T01:48:43.335Z,1.18
2019-01-28T01:53:52.317Z,3.32
2019-01-28T01:59:01.407Z,3.19
2019-01-28T02:04:10.597Z,1.35
2019-01-28T02:09:19.588Z,1.11
2019-01-28T02:14:28.607Z,1.10
2019-01-28T02:19:37.682Z,1.10
2019-01-28T02:24:46.707Z,1.18
2019-01-28T02:29:55.812Z,1.38
2019-01-28T02:35:04.776Z,1.50
2019-01-28T02:40:13.858Z,1.19
2019-01-28T02:45:23.175Z,1.25
2019-01-28T02:50:31.838Z,1.21
2019-01-28T02:55:40.777Z,1.05
2019-01-28T03:00:49.793Z,1.25
2019-01-28T03:05:58.674Z,1.31
2019-01-28T03:11:07.813Z,1.25
2019-01-28T03:16:16.784Z,1.02
2019-01-28T03:21:26.174Z,1.45
2019-01-28T03:26:35.062Z,1.16
2019-01-28T03:31:44.235Z,1.22
2019-01-28T03:36:53.431Z,1.07
2019-01-28T03:42:02.395Z,1.00
2019-01-28T03:47:11.323Z,1.15
2019-01-28T03:52:20.358Z,1.09
2019-01-28T03:57:29.274Z,1.06
2019-01-28T04:02:38.418Z,0.98
2019-01-28T04:07:47.361Z,1.17
2019-01-28T04:12:54.989Z,1.37
2019-01-28T04:18:03.842Z,1.37
2019-01-28T04:23:12.854Z,1.05
2019-01-28T04:28:21.799Z,1.56
2019-01-28T04:33:30.838Z,0.98
2019-01-28T04:38:39.783Z,0.98
2019-01-28T04:43:48.830Z,1.11
2019-01-28T04:48:58.282Z,1.05
2019-01-28T04:54:07.370Z,1.02
2019-01-28T04:59:16.374Z,1.23
2019-01-28T05:04:25.516Z,1.07
2019-01-28T05:09:34.430Z,1.27
2019-01-28T05:14:43.431Z,1.09
2019-01-28T05:19:52.447Z,1.09
2019-01-28T05:25:01.426Z,1.04
2019-01-28T05:30:10.302Z,1.01
2019-01-28T05:35:19.212Z,1.06
2019-01-28T05:40:28.143Z,1.14
2019-01-28T05:45:37.206Z,1.27
2019-01-28T05:50:46.115Z,1.09
2019-01-28T05:55:55.182Z,0.99
2019-01-28T06:01:04.083Z,1.14
2019-01-28T06:06:13.267Z,1.37
2019-01-28T06:11:22.267Z,1.19
2019-01-28T06:16:31.246Z,0.98
2019-01-28T06:21:40.075Z,1.12
2019-01-28T06:26:49.018Z,1.30
2019-01-28T06:31:57.957Z,1.35
2019-01-28T06:37:07.003Z,1.57
2019-01-28T06:42:15.879Z,1.51
2019-01-28T06:47:24.812Z,1.65
2019-01-28T06:52:33.757Z,2.16
2019-01-28T06:57:42.783Z,2.13
2019-01-28T07:02:51.712Z,2.86
2019-01-28T07:07:59.304Z,3.60
2019-01-28T07:13:08.343Z,5.54
2019-01-28T07:18:17.438Z,7.81
2019-01-28T07:23:26.427Z,9.73
2019-01-28T07:28:35.467Z,3.81
2019-01-28T07:33:44.410Z,4.31
2019-01-28T07:38:53.862Z,4.82
2019-01-28T07:44:02.805Z,4.95
2019-01-28T07:49:11.786Z,4.43
2019-01-28T07:54:20.790Z,4.68
2019-01-28T07:59:29.888Z,3.92
2019-01-28T08:04:38.842Z,3.80
2019-01-28T08:09:47.845Z,3.24
2019-01-28T08:14:56.999Z,2.54
2019-01-28T08:20:11.400Z,2.74
2019-01-28T08:25:14.478Z,2.86
2019-01-28T08:30:26.045Z,3.17
2019-01-28T08:35:24.947Z,3.46
2019-01-28T08:40:33.922Z,8.13
2019-01-28T08:45:43.285Z,7.30
2019-01-28T08:50:55.977Z,7.01
2019-01-28T08:55:55.176Z,3.86
2019-01-28T09:01:15.598Z,6.13
2019-01-28T09:06:04.701Z,4.98
2019-01-28T09:11:13.774Z,4.41
2019-01-28T09:16:22.863Z,5.15
2019-01-28T09:21:31.939Z,4.68
2019-01-28T09:26:40.963Z,3.54
2019-01-28T09:31:50.238Z,3.59
2019-01-28T09:36:59.242Z,3.28
2019-01-28T09:42:08.626Z,3.06
2019-01-28T09:47:17.648Z,2.69
2019-01-28T09:52:27.093Z,2.74
2019-01-28T09:57:35.971Z,2.42
2019-01-28T10:02:45.146Z,2.66
2019-01-28T10:07:54.104Z,2.43
2019-01-28T10:13:03.113Z,3.14
2019-01-28T10:18:12.277Z,2.20
2019-01-28T10:23:21.401Z,2.09
2019-01-28T10:28:30.331Z,1.92
2019-01-28T10:33:39.510Z,1.64
2019-01-28T10:38:48.430Z,1.87
2019-01-28T10:43:57.533Z,2.19
2019-01-28T10:49:06.787Z,1.54
2019-01-28T10:54:17.158Z,1.96
2019-01-28T10:59:18.729Z,2.02
2019-01-28T11:04:21.160Z,2.40
2019-01-28T11:09:20.235Z,1.68
2019-01-28T11:14:29.244Z,2.07
2019-01-28T11:19:38.578Z,2.12
2019-01-28T11:24:47.723Z,2.59
2019-01-28T11:29:56.742Z,3.47
2019-01-28T11:35:05.839Z,3.15
2019-01-28T11:40:14.919Z,2.39
2019-01-28T11:45:23.970Z,1.60
2019-01-28T11:50:32.890Z,1.54
2019-01-28T11:55:42.366Z,1.85
2019-01-28T12:00:51.314Z,1.65
2019-01-28T12:06:00.563Z,6.83
2019-01-28T12:11:09.575Z,1.87
2019-01-28T12:16:18.620Z,2.09
2019-01-28T12:21:27.596Z,1.74
2019-01-28T12:26:36.755Z,2.09
2019-01-28T12:31:50.694Z,1.98
2019-01-28T12:36:49.676Z,1.89
2019-01-28T12:41:58.646Z,1.86
2019-01-28T12:47:07.702Z,2.26
2019-01-28T12:52:16.707Z,1.66
2019-01-28T12:57:25.814Z,1.20
2019-01-28T13:02:34.732Z,1.44
2019-01-28T13:07:43.838Z,1.39
2019-01-28T13:12:52.817Z,1.59
2019-01-28T13:18:07.267Z,1.39
2019-01-28T13:23:04.681Z,1.01
2019-01-28T13:28:13.864Z,1.34
2019-01-28T13:33:22.934Z,2.17
2019-01-28T13:38:32.982Z,1.66
2019-01-28T13:43:36.493Z,3.27
2019-01-28T13:48:35.442Z,2.66
2019-01-28T13:53:44.447Z,2.22
2019-01-28T13:58:53.989Z,2.29
2019-01-28T14:04:02.919Z,3.51
2019-01-28T14:09:12.039Z,2.28
2019-01-28T14:14:21.102Z,1.47
2019-01-28T14:19:30.223Z,1.33
2019-01-28T14:24:41.900Z,1.65
2019-01-28T14:29:40.903Z,1.07
2019-01-28T14:34:49.834Z,1.16
2019-01-28T14:39:58.983Z,1.78
2019-01-28T14:45:07.923Z,1.81
2019-01-28T14:50:17.000Z,1.09
2019-01-28T14:55:26.011Z,1.09
2019-01-28T15:00:35.055Z,1.31
2019-01-28T15:05:43.940Z,1.43
2019-01-28T15:10:53.467Z,1.15
2019-01-28T15:16:02.606Z,1.23
2019-01-28T15:21:11.745Z,1.12
2019-01-28T15:26:19.265Z,1.29
2019-01-28T15:31:28.391Z,1.13
2019-01-28T15:36:37.272Z,2.50
2019-01-28T15:41:46.287Z,1.33
2019-01-28T15:46:55.262Z,1.49
2019-01-28T15:52:04.305Z,1.86
2019-01-28T15:57:13.320Z,1.61
2019-01-28T16:02:22.331Z,1.48
2019-01-28T16:07:31.258Z,1.81
2019-01-28T16:12:40.549Z,2.01
2019-01-28T16:17:49.598Z,1.87
2019-01-28T16:22:58.579Z,2.03
2019-01-28T16:28:07.474Z,1.66
2019-01-28T16:33:16.515Z,1.64
2019-01-28T16:38:25.386Z,1.58
2019-01-28T16:43:34.478Z,5.66
2019-01-28T16:48:43.470Z,1.56
2019-01-28T16:53:52.448Z,2.90
2019-01-28T16:59:01.371Z,3.04
2019-01-28T17:04:11.146Z,2.49
2019-01-28T17:09:18.943Z,1.97
2019-01-28T17:14:27.990Z,1.88
2019-01-28T17:19:36.910Z,1.68
2019-01-28T17:24:45.963Z,2.69
2019-01-28T17:29:54.980Z,4.06
2019-01-28T17:35:03.990Z,2.85
2019-01-28T17:40:13.400Z,2.85
2019-01-28T17:45:22.566Z,2.52
2019-01-28T17:50:31.566Z,3.31
2019-01-28T17:55:40.853Z,6.52
2019-01-28T18:00:49.666Z,2.57
2019-01-28T18:05:58.734Z,2.11
2019-01-28T18:11:07.744Z,1.59
2019-01-28T18:16:16.743Z,2.81
2019-01-28T18:21:25.723Z,2.87
2019-01-28T18:26:34.870Z,2.87
2019-01-28T18:31:43.810Z,1.79
2019-01-28T18:36:52.862Z,2.01
2019-01-28T18:42:01.867Z,2.31
2019-01-28T18:47:10.904Z,2.66
2019-01-28T18:52:21.077Z,6.96
2019-01-28T18:57:20.035Z,6.51
2019-01-28T19:02:29.080Z,6.57
2019-01-28T19:07:38.561Z,5.16
2019-01-28T19:12:47.438Z,4.32
2019-01-28T19:17:56.637Z,3.53
2019-01-28T19:23:05.666Z,2.97
2019-01-28T19:28:14.637Z,3.84
2019-01-28T19:33:24.091Z,3.44
2019-01-28T19:38:43.762Z,4.74
2019-01-28T19:43:41.279Z,5.52
2019-01-28T19:48:50.399Z,5.66
2019-01-28T19:53:59.382Z,4.30
2019-01-28T19:59:08.758Z,3.89
2019-01-28T20:04:17.631Z,3.39
2019-01-28T20:09:27.230Z,3.65
2019-01-28T20:14:36.202Z,2.46
2019-01-28T20:19:47.374Z,2.35
2019-01-28T20:24:46.501Z,3.28
2019-01-28T20:29:57.960Z,3.59
2019-01-28T20:34:56.729Z,2.51
2019-01-28T20:40:05.822Z,3.21
2019-01-28T21:27:32.572Z,6.52
2019-01-28T21:32:31.486Z,6.48
2019-01-28T21:37:43.406Z,4.54
2019-01-28T21:42:42.527Z,7.49
2019-01-28T21:47:51.438Z,43.84
2019-01-28T21:53:00.343Z,54.27
2019-01-28T21:58:09.398Z,25.27
2019-01-28T22:03:18.415Z,20.62
2019-01-28T22:08:27.358Z,4.25
2019-01-28T22:13:36.282Z,4.36
2019-01-28T22:18:45.195Z,2.49
2019-01-28T22:23:54.049Z,2.62
2019-01-28T22:29:02.927Z,3.38
2019-01-28T22:34:12.214Z,3.17
2019-01-28T22:39:28.591Z,3.04
2019-01-28T22:44:27.415Z,3.26
2019-01-28T22:49:36.282Z,3.25
2019-01-28T22:54:45.080Z,3.04
2019-01-28T22:59:54.459Z,2.99
2019-01-28T23:05:04.722Z,2.50
2019-01-28T23:10:04.522Z,2.48
2019-01-28T23:15:15.359Z,2.89
2019-01-28T23:20:14.154Z,3.77
2019-01-28T23:25:22.987Z,3.38
2019-01-28T23:30:32.018Z,3.34
2019-01-28T23:35:40.887Z,2.68
2019-01-28T23:40:49.734Z,2.65
2019-01-28T23:45:58.609Z,3.04
2019-01-28T23:51:07.577Z,3.94
2019-01-28T23:56:16.398Z,3.58
